Карточка аэропорта URSS

Внимание!
Информация на этой странице в стадии наполнения.
Если вы не увидели какой-то информации, или заметили неточность - пожалуйста сообщите нам!
Спасибо!
Команда RU-STAFF
Название аэропортаСочи
Название аэропорта (англ.)Sochi
Превышение89 ft. (27.1 m.)
Координаты43°26.634', 39°56.55'
Высота перехода13000 ft
Эшелон переходаQNH>=977hPa: FL150; QNH<977hPa: FL160
Коды ответчика1060-1077
Зона ОрВДРостов-на-Дону РПИ (URRV)
Данные METARURSS 231030Z 17004MPS 9999 SCT026CB 10/05 Q1025 WS ALL RWY R02/010070 R06/010070 NOSIG RMK R06/17005MPS MT OBSC QFE767
Проноз погоды (TAF)URSS 230755Z 2309/2409 14005G10MPS 9999 SCT016 BKN100 BECMG 2314/2315 05003G08MPS SCT016 SCT100 BECMG 2407/2408 28005G10MPS SCT100
NOTAMshow/hide NOTAM
AWOS   TABLE

Информация о ВПП

ВПП Длина ВПП (м.) Покрытие Курс ВПП Частота ILS
242890Цементобетон238 
202500Цементобетон202 
022500Цементобетон22110.5
062890Цементобетон58111.1

Диспетчерские позиции

Позывной Наименование органа УВД Частота
URSS_GNDСочи-Руление119.000
URSS_FM1119.000
URSS_R_APPСочи-Круг119.700
URSS_TWRСочи-Старт121.200
URSS_APPСочи-Подход124.600
URSS_DELСочи-Деливери132.700



Спутниковое изображение